createdAt,value
2019-06-10T00:01:43.820Z,75.50
2019-06-10T00:04:13.629Z,75.70
2019-06-10T00:06:43.830Z,76.30
2019-06-10T00:09:13.634Z,76.50
2019-06-10T00:11:43.474Z,76.80
2019-06-10T00:14:13.520Z,77.30
2019-06-10T00:16:43.612Z,77.90
2019-06-10T00:19:13.445Z,78.60
2019-06-10T00:21:43.318Z,79.20
2019-06-10T00:24:13.411Z,79.80
2019-06-10T00:26:43.543Z,80.30
2019-06-10T00:29:13.380Z,80.50
2019-06-10T00:31:43.449Z,81.10
2019-06-10T00:34:13.255Z,81.30
2019-06-10T00:36:43.100Z,81.90
2019-06-10T00:39:13.673Z,81.50
2019-06-10T00:41:43.716Z,81.60
2019-06-10T00:44:13.799Z,81.70
2019-06-10T00:46:43.911Z,82.20
2019-06-10T00:49:14.731Z,82.60
2019-06-10T00:51:44.764Z,83.30
2019-06-10T00:54:15.749Z,83.80
2019-06-10T00:56:46.106Z,85.00
2019-06-10T00:59:16.180Z,86.20
2019-06-10T01:01:46.316Z,86.90
2019-06-10T01:04:16.595Z,87.70
2019-06-10T01:06:47.745Z,88.60
2019-06-10T01:09:17.888Z,88.90
2019-06-10T01:11:48.078Z,89.70
2019-06-10T01:14:21.364Z,90.00
2019-06-10T01:16:50.828Z,89.90
2019-06-10T01:19:21.934Z,89.60
2019-06-10T01:21:51.890Z,89.50
2019-06-10T01:24:22.341Z,89.10
2019-06-10T01:26:52.392Z,88.70
2019-06-10T01:29:22.464Z,89.00
2019-06-10T01:31:52.511Z,88.60
2019-06-10T01:34:22.628Z,88.80
2019-06-10T01:36:52.700Z,88.20
2019-06-10T01:39:22.749Z,87.50
2019-06-10T01:41:52.644Z,87.20
2019-06-10T01:44:22.700Z,87.20
2019-06-10T01:46:52.543Z,86.40
2019-06-10T01:49:22.348Z,86.50
2019-06-10T01:51:52.151Z,85.90
2019-06-10T01:54:22.008Z,86.00
2019-06-10T01:56:51.835Z,85.60
2019-06-10T01:59:22.289Z,85.80
2019-06-10T02:02:00.978Z,86.00
2019-06-10T02:04:32.017Z,84.90
2019-06-10T02:07:02.137Z,84.90
2019-06-10T02:09:32.143Z,84.90
2019-06-10T02:12:02.366Z,84.90
2019-06-10T02:14:32.373Z,85.30
2019-06-10T02:17:02.205Z,85.60
2019-06-10T02:19:32.090Z,85.80
2019-06-10T02:22:01.912Z,86.00
2019-06-10T02:24:31.995Z,87.10
2019-06-10T02:27:01.870Z,87.10
2019-06-10T02:29:31.926Z,87.40
2019-06-10T02:32:04.760Z,87.30
2019-06-10T02:34:39.076Z,87.70
2019-06-10T02:37:05.122Z,88.10
2019-06-10T02:39:38.716Z,88.60
2019-06-10T02:42:08.360Z,89.00
2019-06-10T02:44:38.189Z,88.40
2019-06-10T02:47:08.426Z,88.50
2019-06-10T02:49:52.770Z,88.60
2019-06-10T02:52:22.426Z,88.80
2019-06-10T02:54:53.658Z,88.70
2019-06-10T02:57:29.689Z,89.20
2019-06-10T02:59:54.517Z,89.90
2019-06-10T03:02:31.392Z,90.10
2019-06-10T03:04:56.181Z,90.30
2019-06-10T03:07:29.322Z,90.40
2019-06-10T03:09:57.812Z,90.70
2019-06-10T03:12:28.179Z,90.70
2019-06-10T03:14:58.154Z,91.10
2019-06-10T03:17:28.261Z,91.30
2019-06-10T03:19:58.216Z,91.40
2019-06-10T03:22:28.475Z,91.80
2019-06-10T03:24:58.640Z,92.10
2019-06-10T03:27:28.496Z,92.20
2019-06-10T03:29:58.294Z,92.50
2019-06-10T03:32:35.377Z,92.90
2019-06-10T03:34:59.621Z,93.10
2019-06-10T03:37:29.410Z,93.20
2019-06-10T03:39:59.249Z,93.40
2019-06-10T03:42:29.119Z,93.10
2019-06-10T03:44:59.006Z,93.00
2019-06-10T03:47:28.911Z,92.90
2019-06-10T03:49:58.976Z,93.00
2019-06-10T03:52:28.771Z,93.00
2019-06-10T03:54:58.571Z,93.20
2019-06-10T03:57:28.743Z,93.20
2019-06-10T03:59:58.587Z,93.30
2019-06-10T04:02:28.520Z,93.40
2019-06-10T04:04:58.650Z,93.50
2019-06-10T04:07:31.055Z,93.60
2019-06-10T04:10:02.308Z,93.80
2019-06-10T04:12:32.736Z,93.90
2019-06-10T04:15:03.214Z,94.30
2019-06-10T04:17:34.147Z,94.30
2019-06-10T04:20:11.439Z,94.40
2019-06-10T04:22:37.184Z,94.30
2019-06-10T04:25:08.208Z,94.10
2019-06-10T04:27:38.351Z,94.40
2019-06-10T04:30:08.790Z,94.40
2019-06-10T04:32:38.604Z,94.40
2019-06-10T04:35:08.563Z,94.60
2019-06-10T04:37:38.550Z,94.90
2019-06-10T04:40:08.750Z,94.90
2019-06-10T04:42:38.566Z,94.90
2019-06-10T04:45:08.835Z,94.70
2019-06-10T04:47:38.648Z,94.40
2019-06-10T04:50:20.794Z,94.40
2019-06-10T04:52:42.922Z,94.20
2019-06-10T04:55:12.797Z,94.20
2019-06-10T04:57:43.144Z,94.60
2019-06-10T05:00:14.711Z,94.20
2019-06-10T05:02:44.786Z,94.10
2019-06-10T05:05:14.981Z,93.90
2019-06-10T05:07:45.133Z,94.00
2019-06-10T05:10:14.996Z,93.80
2019-06-10T05:12:45.075Z,93.90
2019-06-10T05:15:15.044Z,93.80
2019-06-10T05:17:45.115Z,93.60
2019-06-10T05:20:15.357Z,93.60
2019-06-10T05:22:45.650Z,93.40
2019-06-10T05:25:15.515Z,93.10
2019-06-10T05:27:45.581Z,93.00
2019-06-10T05:30:15.443Z,92.60
2019-06-10T05:32:45.535Z,92.60
2019-06-10T05:35:15.386Z,92.40
2019-06-10T05:37:45.461Z,92.10
2019-06-10T05:40:15.408Z,92.10
2019-06-10T05:42:45.288Z,91.80
2019-06-10T05:45:15.357Z,91.70
2019-06-10T05:47:45.631Z,91.70
2019-06-10T05:50:15.582Z,91.10
2019-06-10T05:52:45.666Z,90.40
2019-06-10T05:55:15.724Z,90.20
2019-06-10T05:57:45.811Z,90.00
2019-06-10T06:00:16.662Z,89.60
2019-06-10T06:02:46.562Z,89.50
2019-06-10T06:05:16.780Z,88.40
2019-06-10T06:08:01.074Z,88.70
2019-06-10T06:10:18.244Z,88.40
2019-06-10T06:12:48.487Z,88.60
2019-06-10T06:15:18.609Z,87.70
2019-06-10T06:18:01.069Z,87.50
2019-06-10T06:20:20.464Z,87.40
2019-06-10T06:22:52.243Z,85.70
2019-06-10T06:25:24.122Z,84.50
2019-06-10T06:27:54.059Z,84.70
2019-06-10T06:30:24.221Z,86.20
2019-06-10T06:32:54.279Z,85.60
2019-06-10T06:35:24.357Z,86.70
2019-06-10T06:37:54.178Z,86.70
2019-06-10T06:40:24.008Z,87.30
2019-06-10T06:42:54.053Z,86.30
2019-06-10T06:45:23.871Z,87.20
2019-06-10T06:47:53.949Z,86.80
2019-06-10T06:50:25.626Z,86.20
2019-06-10T06:53:19.753Z,86.70
2019-06-10T06:55:28.605Z,86.60
2019-06-10T06:57:58.515Z,87.00
2019-06-10T07:00:49.188Z,86.50
2019-06-10T07:03:05.822Z,85.40
2019-06-10T07:05:37.551Z,85.10
2019-06-10T07:08:08.631Z,82.50
2019-06-10T07:10:40.797Z,84.00
2019-06-10T07:13:12.903Z,83.00
2019-06-10T07:15:47.598Z,83.00
2019-06-10T07:18:18.135Z,83.80
2019-06-10T07:20:47.975Z,83.10
2019-06-10T07:23:17.859Z,79.20
2019-06-10T07:25:47.841Z,78.90
2019-06-10T07:28:18.002Z,75.50
2019-06-10T07:30:52.876Z,72.30
2019-06-10T07:33:19.618Z,65.90
2019-06-10T07:35:49.450Z,61.80
2019-06-10T07:38:19.260Z,60.50
2019-06-10T07:40:49.389Z,59.00
2019-06-10T07:43:19.188Z,58.20
2019-06-10T07:45:49.002Z,58.40
2019-06-10T07:48:18.890Z,54.70
2019-06-10T07:50:48.964Z,53.40
2019-06-10T07:53:18.879Z,56.00
2019-06-10T07:55:49.005Z,56.90
2019-06-10T07:58:19.085Z,56.90
2019-06-10T08:00:49.058Z,55.80
2019-06-10T08:03:19.131Z,55.60
2019-06-10T08:05:49.027Z,54.80
2019-06-10T08:08:18.840Z,54.60
2019-06-10T08:10:48.655Z,54.30
2019-06-10T08:13:18.545Z,54.50
2019-06-10T08:15:48.515Z,59.50
2019-06-10T08:18:18.388Z,61.60
2019-06-10T08:20:48.261Z,63.30
2019-06-10T08:23:19.680Z,64.80
2019-06-10T08:25:54.652Z,65.60
2019-06-10T08:28:23.031Z,64.80
2019-06-10T08:30:53.512Z,62.60
2019-06-10T08:33:23.764Z,60.60
2019-06-10T08:35:59.315Z,59.30
2019-06-10T08:38:25.742Z,58.00
2019-06-10T08:40:55.705Z,56.80
2019-06-10T08:43:25.895Z,56.10
2019-06-10T08:45:55.770Z,56.00
2019-06-10T08:48:25.746Z,57.70
2019-06-10T08:50:55.577Z,61.20
2019-06-10T08:53:25.741Z,64.10
2019-06-10T08:55:55.614Z,65.00
2019-06-10T08:58:25.405Z,64.20
2019-06-10T09:00:55.624Z,66.70
2019-06-10T09:03:25.494Z,68.20
2019-06-10T09:05:58.333Z,65.80
2019-06-10T09:08:26.979Z,64.90
2019-06-10T09:10:56.840Z,64.20
2019-06-10T09:13:27.000Z,62.20
2019-06-10T09:16:11.698Z,63.70
2019-06-10T09:18:29.951Z,62.90
2019-06-10T09:21:02.166Z,62.60
2019-06-10T09:23:33.148Z,61.50
2019-06-10T09:26:03.736Z,60.20
2019-06-10T09:28:33.776Z,60.40
2019-06-10T09:31:05.303Z,58.00
2019-06-10T09:33:35.279Z,57.60
2019-06-10T09:36:05.660Z,53.70
2019-06-10T09:38:35.474Z,54.30
2019-06-10T09:41:06.316Z,54.10
2019-06-10T09:43:36.543Z,56.40
2019-06-10T09:46:06.536Z,58.00
2019-06-10T09:48:36.768Z,58.30
2019-06-10T09:51:06.613Z,56.30
2019-06-10T09:53:42.690Z,55.60
2019-06-10T09:56:08.267Z,56.20
2019-06-10T09:58:38.094Z,55.80
2019-06-10T10:01:07.977Z,54.20
2019-06-10T10:03:37.911Z,53.00
2019-06-10T10:06:15.297Z,52.70
2019-06-10T10:08:39.654Z,53.80
2019-06-10T10:11:12.340Z,54.00
2019-06-10T10:13:44.134Z,55.90
2019-06-10T10:16:13.112Z,54.00
2019-06-10T10:18:47.297Z,51.50
2019-06-10T10:21:15.616Z,51.90
2019-06-10T10:23:54.279Z,56.20
2019-06-10T10:26:18.194Z,56.10
2019-06-10T10:28:51.807Z,56.80
2019-06-10T10:31:23.048Z,58.40
2019-06-10T10:33:52.683Z,57.80
2019-06-10T10:36:22.732Z,56.30
2019-06-10T10:38:54.048Z,56.30
2019-06-10T10:41:24.242Z,58.50
2019-06-10T10:43:58.134Z,59.20
2019-06-10T10:46:26.614Z,59.70
2019-06-10T10:48:56.835Z,59.70
2019-06-10T10:51:26.774Z,59.30
2019-06-10T10:54:18.793Z,58.10
2019-06-10T10:56:28.525Z,57.10
2019-06-10T10:58:58.710Z,58.40
2019-06-10T11:01:28.791Z,58.00
2019-06-10T11:03:59.399Z,57.90
2019-06-10T11:06:32.142Z,58.20
2019-06-10T11:09:01.168Z,57.80
2019-06-10T11:11:33.374Z,56.70
2019-06-10T11:14:04.307Z,59.40
2019-06-10T11:16:34.142Z,57.90
2019-06-10T11:19:04.655Z,58.50
2019-06-10T11:21:35.494Z,58.10
2019-06-10T11:24:05.464Z,59.10
2019-06-10T11:26:36.728Z,58.80
2019-06-10T11:29:07.004Z,60.00
2019-06-10T11:31:37.231Z,57.00
2019-06-10T11:34:07.143Z,58.30
2019-06-10T11:36:37.219Z,61.10
2019-06-10T11:39:08.112Z,61.30
2019-06-10T11:41:38.327Z,60.50
2019-06-10T11:44:08.178Z,60.60
2019-06-10T11:46:38.020Z,59.70
2019-06-10T11:49:07.837Z,59.10
2019-06-10T11:51:37.760Z,60.60
2019-06-10T11:54:07.960Z,59.70
2019-06-10T11:56:37.884Z,59.50
2019-06-10T11:59:09.644Z,58.50
2019-06-10T12:01:39.523Z,58.90
2019-06-10T12:04:09.680Z,57.40
2019-06-10T12:06:39.875Z,59.10
2019-06-10T12:09:10.036Z,58.50
2019-06-10T12:11:43.417Z,61.90
2019-06-10T12:14:12.899Z,58.70
2019-06-10T12:19:14.536Z,60.80
2019-06-10T12:21:44.360Z,62.10
2019-06-10T12:24:14.248Z,60.10
2019-06-10T12:26:44.288Z,61.80
2019-06-10T12:29:14.542Z,60.20
2019-06-10T12:31:44.496Z,61.40
2019-06-10T12:34:17.125Z,58.80
2019-06-10T12:36:47.005Z,59.60
2019-06-10T12:39:17.446Z,58.50
2019-06-10T12:41:47.522Z,59.10
2019-06-10T12:44:17.422Z,61.00
2019-06-10T12:46:47.492Z,62.30
2019-06-10T12:49:18.542Z,58.20
2019-06-10T12:51:49.008Z,58.40
2019-06-10T12:54:19.126Z,55.60
2019-06-10T12:56:49.577Z,57.00
2019-06-10T12:59:20.122Z,57.30
2019-06-10T13:01:52.956Z,57.70
2019-06-10T13:04:22.306Z,55.20
2019-06-10T13:06:52.686Z,57.70
2019-06-10T13:09:24.353Z,58.00
2019-06-10T13:11:55.675Z,56.00
2019-06-10T13:14:25.665Z,56.40
2019-06-10T13:16:55.828Z,57.10
2019-06-10T13:19:25.767Z,57.30
2019-06-10T13:21:55.592Z,57.10
2019-06-10T13:24:25.715Z,56.50
2019-06-10T13:26:56.519Z,55.10
2019-06-10T13:29:26.417Z,55.80
2019-06-10T13:31:58.043Z,56.00
2019-06-10T13:34:28.018Z,54.60
2019-06-10T13:36:58.747Z,56.40
2019-06-10T13:39:28.786Z,53.10
2019-06-10T13:41:59.920Z,56.70
2019-06-10T13:44:32.149Z,57.90
2019-06-10T13:47:07.105Z,58.10
2019-06-10T13:49:33.767Z,55.40
2019-06-10T13:52:07.940Z,56.50
2019-06-10T13:54:35.587Z,55.40
2019-06-10T13:57:06.928Z,56.00
2019-06-10T13:59:37.350Z,57.30
2019-06-10T14:02:10.229Z,56.50
2019-06-10T14:04:39.306Z,55.00
2019-06-10T14:07:15.009Z,55.20
2019-06-10T14:09:42.455Z,56.10
2019-06-10T14:12:14.774Z,56.60
2019-06-10T14:14:43.886Z,55.20
2019-06-10T14:17:18.983Z,55.80
2019-06-10T14:19:45.313Z,55.20
2019-06-10T14:22:15.970Z,54.80
2019-06-10T14:24:46.412Z,55.10
2019-06-10T14:27:20.515Z,55.30
2019-06-10T14:29:48.213Z,57.20
2019-06-10T14:32:18.111Z,57.20
2019-06-10T14:34:48.306Z,59.40
2019-06-10T14:37:32.248Z,57.70
2019-06-10T14:39:52.871Z,58.00
2019-06-10T14:42:23.116Z,58.00
2019-06-10T14:44:53.401Z,59.70
2019-06-10T14:47:23.287Z,59.70
2019-06-10T14:49:53.246Z,59.80
2019-06-10T14:52:23.192Z,59.50
2019-06-10T14:54:53.437Z,61.10
2019-06-10T14:57:23.364Z,60.50
2019-06-10T14:59:53.454Z,60.70
2019-06-10T15:02:23.646Z,60.10
2019-06-10T15:04:53.523Z,61.80
2019-06-10T15:07:24.340Z,60.50
2019-06-10T15:09:55.206Z,59.70
2019-06-10T15:12:25.187Z,60.20
2019-06-10T15:14:55.593Z,59.40
2019-06-10T15:17:25.728Z,60.30
2019-06-10T15:19:55.851Z,60.40
2019-06-10T15:22:25.739Z,59.80
2019-06-10T15:24:55.791Z,60.00
2019-06-10T15:27:30.626Z,59.60
2019-06-10T15:29:57.521Z,60.00
2019-06-10T15:32:34.658Z,59.70
2019-06-10T15:34:59.361Z,58.20
2019-06-10T15:37:29.352Z,59.90
2019-06-10T15:39:59.236Z,58.60
2019-06-10T15:42:29.096Z,58.40
2019-06-10T15:44:59.302Z,59.70
2019-06-10T15:47:29.479Z,59.90
2019-06-10T15:49:59.445Z,60.60
2019-06-10T15:52:29.452Z,60.20
2019-06-10T15:54:59.591Z,62.30
2019-06-10T15:57:39.225Z,63.10
2019-06-10T16:00:04.186Z,65.50
2019-06-10T16:02:33.497Z,67.40
2019-06-10T16:05:04.760Z,68.30
2019-06-10T16:07:34.918Z,77.40
2019-06-10T16:10:07.761Z,83.70
2019-06-10T16:12:37.588Z,88.80
2019-06-10T16:15:08.329Z,91.30
2019-06-10T16:17:38.408Z,93.70
2019-06-10T16:20:08.877Z,95.40
2019-06-10T16:22:38.856Z,96.50
2019-06-10T16:25:08.831Z,97.80
2019-06-10T16:27:47.140Z,99.10
2019-06-10T16:30:12.943Z,99.60
2019-06-10T16:32:46.171Z,99.90
2019-06-10T16:35:15.174Z,99.90
2019-06-10T16:37:44.985Z,99.90
2019-06-10T16:40:15.251Z,99.90
2019-06-10T16:42:46.168Z,99.90
2019-06-10T16:45:19.823Z,99.90
2019-06-10T16:47:48.311Z,99.90
2019-06-10T16:50:19.458Z,99.90
2019-06-10T16:52:49.339Z,99.90
2019-06-10T16:55:19.653Z,99.90
2019-06-10T16:57:59.306Z,99.90
2019-06-10T17:00:24.221Z,99.90
2019-06-10T17:02:55.304Z,99.90
2019-06-10T17:05:27.511Z,99.90
2019-06-10T17:07:57.061Z,99.90
2019-06-10T17:10:28.192Z,99.90
2019-06-10T17:13:02.884Z,99.90
2019-06-10T17:15:32.204Z,99.90
2019-06-10T17:18:02.879Z,99.90
2019-06-10T17:20:34.146Z,99.90
2019-06-10T17:23:23.972Z,99.90
2019-06-10T17:25:57.841Z,99.90
2019-06-10T17:28:31.198Z,99.90
2019-06-10T17:30:59.983Z,99.90
2019-06-10T17:33:32.577Z,99.90
2019-06-10T17:36:03.365Z,99.90
2019-06-10T17:38:33.459Z,99.90
2019-06-10T17:41:03.343Z,99.90
2019-06-10T17:43:34.394Z,99.90
2019-06-10T17:46:04.916Z,99.90
2019-06-10T17:48:34.901Z,99.90
2019-06-10T17:51:05.062Z,99.90
2019-06-10T17:53:35.166Z,99.90
2019-06-10T17:56:05.093Z,99.90
2019-06-10T17:58:49.956Z,99.90
2019-06-10T18:01:06.490Z,99.90
2019-06-10T18:03:39.789Z,99.90
2019-06-10T18:06:08.338Z,99.90
2019-06-10T18:08:40.656Z,99.90
2019-06-10T18:11:12.506Z,99.90
2019-06-10T18:13:42.861Z,99.90
2019-06-10T18:16:13.381Z,99.90
2019-06-10T18:18:44.418Z,99.90
2019-06-10T18:21:14.535Z,99.90
2019-06-10T18:23:44.437Z,99.90
2019-06-10T18:26:14.286Z,99.90
2019-06-10T18:29:00.416Z,99.90
2019-06-10T18:31:18.557Z,99.90
2019-06-10T18:33:47.741Z,99.90
2019-06-10T18:36:17.788Z,99.90
2019-06-10T18:38:47.605Z,99.90
2019-06-10T18:41:17.677Z,99.90
2019-06-10T18:43:48.470Z,99.90
2019-06-10T18:46:18.496Z,99.90
2019-06-10T18:48:48.585Z,99.90
2019-06-10T18:51:18.402Z,99.90
2019-06-10T18:53:48.404Z,99.90
2019-06-10T18:56:18.608Z,99.90
2019-06-10T18:58:48.423Z,99.90
2019-06-10T19:01:18.320Z,99.90
2019-06-10T19:03:48.879Z,99.90
2019-06-10T19:06:19.019Z,99.90
2019-06-10T19:08:49.091Z,99.90
2019-06-10T19:11:19.256Z,99.90
2019-06-10T19:13:49.079Z,99.90
2019-06-10T19:16:18.896Z,99.90
2019-06-10T19:18:48.967Z,99.90
2019-06-10T19:21:18.879Z,99.90
2019-06-10T19:23:48.723Z,99.90
2019-06-10T19:26:18.961Z,99.90
2019-06-10T19:28:48.859Z,99.90
2019-06-10T19:31:19.031Z,99.90
2019-06-10T19:33:48.856Z,99.90
2019-06-10T19:36:18.918Z,99.90
2019-06-10T19:38:48.967Z,99.90
2019-06-10T19:41:18.786Z,99.90
2019-06-10T19:43:48.609Z,99.90
2019-06-10T19:46:19.610Z,99.90
2019-06-10T19:48:58.385Z,99.90
2019-06-10T19:51:21.466Z,99.90
2019-06-10T19:53:52.728Z,99.90
2019-06-10T19:56:26.297Z,99.90
2019-06-10T19:58:54.793Z,99.90
2019-06-10T20:01:24.760Z,99.90
2019-06-10T20:03:54.864Z,99.90
2019-06-10T20:06:24.767Z,99.90
2019-06-10T20:08:54.820Z,99.90
2019-06-10T20:11:24.638Z,99.90
2019-06-10T20:13:54.473Z,99.90
2019-06-10T20:16:24.476Z,99.90
2019-06-10T20:18:54.364Z,99.90
2019-06-10T20:21:24.199Z,99.90
2019-06-10T20:23:54.019Z,99.90
2019-06-10T20:26:23.830Z,99.90
2019-06-10T20:28:55.473Z,99.90
2019-06-10T20:31:25.385Z,99.90
2019-06-10T20:33:55.264Z,99.90
2019-06-10T20:36:27.188Z,99.90
2019-06-10T20:38:56.611Z,99.90
2019-06-10T20:41:26.420Z,99.90
2019-06-10T20:43:59.044Z,99.90
2019-06-10T20:46:27.829Z,99.90
2019-06-10T20:48:57.798Z,99.90
2019-06-10T20:51:27.704Z,99.90
2019-06-10T20:53:57.587Z,99.90
2019-06-10T20:56:27.718Z,99.90
2019-06-10T20:58:57.600Z,99.90
2019-06-10T21:01:27.536Z,99.90
2019-06-10T21:03:57.642Z,99.90
2019-06-10T21:06:29.832Z,99.90
2019-06-10T21:09:02.898Z,99.90
2019-06-10T21:11:34.489Z,99.90
2019-06-10T21:14:05.090Z,99.90
2019-06-10T21:16:35.166Z,99.90
2019-06-10T21:19:05.595Z,99.90
2019-06-10T21:21:36.028Z,99.90
2019-06-10T21:24:06.146Z,99.90
2019-06-10T21:26:36.310Z,99.90
2019-06-10T21:29:06.346Z,99.90
2019-06-10T21:31:36.512Z,99.90
2019-06-10T21:34:06.355Z,99.90
2019-06-10T21:36:36.425Z,99.90
2019-06-10T21:39:07.815Z,99.90
2019-06-10T21:41:37.654Z,99.90
2019-06-10T21:44:07.595Z,99.90
2019-06-10T21:46:37.667Z,99.90
2019-06-10T21:49:07.494Z,99.90
2019-06-10T21:51:37.509Z,99.90
2019-06-10T21:54:07.642Z,99.90
2019-06-10T21:56:37.737Z,99.90
2019-06-10T21:59:07.811Z,99.90
2019-06-10T22:01:38.125Z,99.90
2019-06-10T22:04:08.129Z,99.90
2019-06-10T22:06:37.938Z,99.90
2019-06-10T22:09:07.895Z,99.90
2019-06-10T22:11:37.797Z,99.90
2019-06-10T22:14:07.985Z,99.90
2019-06-10T22:16:38.059Z,99.90
2019-06-10T22:19:08.119Z,99.90
2019-06-10T22:21:38.004Z,99.90
2019-06-10T22:24:08.183Z,99.90
2019-06-10T22:26:38.016Z,99.90
2019-06-10T22:29:08.084Z,99.90
2019-06-10T22:31:38.224Z,99.90
2019-06-10T22:34:08.302Z,99.90
2019-06-10T22:36:38.392Z,99.90
2019-06-10T22:39:08.507Z,99.90
2019-06-10T22:41:38.649Z,99.90
2019-06-10T22:44:08.529Z,99.90
2019-06-10T22:46:39.325Z,99.90
2019-06-10T22:49:09.507Z,99.90
2019-06-10T22:51:39.623Z,99.90
2019-06-10T22:54:09.671Z,99.90
2019-06-10T22:56:39.569Z,99.90
2019-06-10T22:59:09.460Z,99.90
2019-06-10T23:01:39.416Z,99.90
2019-06-10T23:04:09.546Z,99.90
2019-06-10T23:06:39.398Z,99.90
2019-06-10T23:09:09.533Z,99.90
2019-06-10T23:11:39.354Z,99.90
2019-06-10T23:14:09.171Z,99.90
2019-06-10T23:16:39.000Z,99.90
2019-06-10T23:19:08.816Z,99.90
2019-06-10T23:21:38.882Z,99.90
2019-06-10T23:24:08.924Z,99.90
2019-06-10T23:26:38.746Z,99.90
2019-06-10T23:29:08.827Z,99.90
2019-06-10T23:31:49.575Z,99.90
2019-06-10T23:34:11.669Z,99.90
2019-06-10T23:36:43.174Z,99.90
2019-06-10T23:39:13.301Z,99.90
2019-06-10T23:41:43.512Z,99.90
2019-06-10T23:44:13.630Z,99.90
2019-06-10T23:46:43.457Z,99.90
2019-06-10T23:49:13.348Z,99.90
2019-06-10T23:51:43.481Z,99.90
2019-06-10T23:54:13.291Z,99.90
2019-06-10T23:56:43.422Z,99.90
2019-06-10T23:59:13.232Z,99.90
